sensor_id;sensor_type;location;lat;lon;timestamp;temperature;humidity
73688;SHT30;62257;48.376;-4.378;2022-08-21T00:01:26;17.96;72.75
73688;SHT30;62257;48.376;-4.378;2022-08-21T00:03:53;17.93;72.85
73688;SHT30;62257;48.376;-4.378;2022-08-21T00:06:20;17.90;72.90
73688;SHT30;62257;48.376;-4.378;2022-08-21T00:08:45;17.89;72.92
73688;SHT30;62257;48.376;-4.378;2022-08-21T00:11:11;17.89;72.85
73688;SHT30;62257;48.376;-4.378;2022-08-21T00:13:37;17.89;72.79
73688;SHT30;62257;48.376;-4.378;2022-08-21T00:16:03;17.86;72.80
73688;SHT30;62257;48.376;-4.378;2022-08-21T00:18:28;17.83;72.91
73688;SHT30;62257;48.376;-4.378;2022-08-21T00:20:54;17.82;73.08
73688;SHT30;62257;48.376;-4.378;2022-08-21T00:23:19;17.82;73.30
73688;SHT30;62257;48.376;-4.378;2022-08-21T00:25:45;17.83;73.45
73688;SHT30;62257;48.376;-4.378;2022-08-21T00:28:11;17.82;73.67
73688;SHT30;62257;48.376;-4.378;2022-08-21T00:30:38;17.85;73.53
73688;SHT30;62257;48.376;-4.378;2022-08-21T00:33:05;17.85;73.43
73688;SHT30;62257;48.376;-4.378;2022-08-21T00:35:35;17.86;73.51
73688;SHT30;62257;48.376;-4.378;2022-08-21T00:38:02;17.88;73.66
73688;SHT30;62257;48.376;-4.378;2022-08-21T00:43:08;17.86;73.84
73688;SHT30;62257;48.376;-4.378;2022-08-21T00:45:34;17.88;73.81
73688;SHT30;62257;48.376;-4.378;2022-08-21T00:47:59;17.89;74.10
73688;SHT30;62257;48.376;-4.378;2022-08-21T00:50:29;17.93;74.08
73688;SHT30;62257;48.376;-4.378;2022-08-21T00:52:55;17.95;74.59
73688;SHT30;62257;48.376;-4.378;2022-08-21T00:55:22;17.95;74.96
73688;SHT30;62257;48.376;-4.378;2022-08-21T00:57:51;17.93;75.09
73688;SHT30;62257;48.376;-4.378;2022-08-21T01:00:23;17.93;74.86
73688;SHT30;62257;48.376;-4.378;2022-08-21T01:02:49;17.93;74.68
73688;SHT30;62257;48.376;-4.378;2022-08-21T01:05:15;17.95;74.83
73688;SHT30;62257;48.376;-4.378;2022-08-21T01:07:42;17.93;74.65
73688;SHT30;62257;48.376;-4.378;2022-08-21T01:10:08;17.93;74.63
73688;SHT30;62257;48.376;-4.378;2022-08-21T01:12:34;17.93;74.68
73688;SHT30;62257;48.376;-4.378;2022-08-21T01:15:03;17.92;74.81
73688;SHT30;62257;48.376;-4.378;2022-08-21T01:17:30;17.95;74.70
73688;SHT30;62257;48.376;-4.378;2022-08-21T01:20:01;17.96;74.78
73688;SHT30;62257;48.376;-4.378;2022-08-21T01:22:29;17.96;74.78
73688;SHT30;62257;48.376;-4.378;2022-08-21T01:24:54;17.90;74.78
73688;SHT30;62257;48.376;-4.378;2022-08-21T01:27:20;17.83;75.06
73688;SHT30;62257;48.376;-4.378;2022-08-21T01:30:03;17.86;75.25
73688;SHT30;62257;48.376;-4.378;2022-08-21T01:32:33;17.89;75.27
73688;SHT30;62257;48.376;-4.378;2022-08-21T01:34:59;17.89;75.45
73688;SHT30;62257;48.376;-4.378;2022-08-21T01:37:24;17.89;75.71
73688;SHT30;62257;48.376;-4.378;2022-08-21T01:39:50;17.90;75.65
73688;SHT30;62257;48.376;-4.378;2022-08-21T01:42:15;17.92;75.51
73688;SHT30;62257;48.376;-4.378;2022-08-21T01:44:41;17.90;75.27
73688;SHT30;62257;48.376;-4.378;2022-08-21T01:47:10;17.89;75.19
73688;SHT30;62257;48.376;-4.378;2022-08-21T01:49:36;17.82;75.42
73688;SHT30;62257;48.376;-4.378;2022-08-21T01:52:04;17.78;75.43
73688;SHT30;62257;48.376;-4.378;2022-08-21T01:54:30;17.82;75.19
73688;SHT30;62257;48.376;-4.378;2022-08-21T01:56:56;17.82;75.05
73688;SHT30;62257;48.376;-4.378;2022-08-21T01:59:23;17.78;75.02
73688;SHT30;62257;48.376;-4.378;2022-08-21T02:01:49;17.81;75.06
73688;SHT30;62257;48.376;-4.378;2022-08-21T02:04:15;17.81;75.08
73688;SHT30;62257;48.376;-4.378;2022-08-21T02:06:41;17.82;74.96
73688;SHT30;62257;48.376;-4.378;2022-08-21T02:09:09;17.83;74.88
73688;SHT30;62257;48.376;-4.378;2022-08-21T02:11:36;17.88;74.71
73688;SHT30;62257;48.376;-4.378;2022-08-21T02:14:01;17.89;74.50
73688;SHT30;62257;48.376;-4.378;2022-08-21T02:16:27;17.89;74.47
73688;SHT30;62257;48.376;-4.378;2022-08-21T02:18:53;17.88;74.55
73688;SHT30;62257;48.376;-4.378;2022-08-21T02:21:18;17.83;74.47
73688;SHT30;62257;48.376;-4.378;2022-08-21T02:23:44;17.83;74.35
73688;SHT30;62257;48.376;-4.378;2022-08-21T02:26:10;17.83;74.43
73688;SHT30;62257;48.376;-4.378;2022-08-21T02:28:36;17.79;74.34
73688;SHT30;62257;48.376;-4.378;2022-08-21T02:31:03;17.82;74.38
73688;SHT30;62257;48.376;-4.378;2022-08-21T02:33:29;17.83;74.40
73688;SHT30;62257;48.376;-4.378;2022-08-21T02:35:55;17.85;74.26
73688;SHT30;62257;48.376;-4.378;2022-08-21T02:38:24;17.88;74.14
73688;SHT30;62257;48.376;-4.378;2022-08-21T02:40:51;17.88;74.05
73688;SHT30;62257;48.376;-4.378;2022-08-21T02:43:18;17.86;74.02
73688;SHT30;62257;48.376;-4.378;2022-08-21T02:45:45;17.85;73.99
73688;SHT30;62257;48.376;-4.378;2022-08-21T02:48:13;17.85;73.94
73688;SHT30;62257;48.376;-4.378;2022-08-21T02:50:43;17.88;73.96
73688;SHT30;62257;48.376;-4.378;2022-08-21T02:53:10;17.86;73.92
73688;SHT30;62257;48.376;-4.378;2022-08-21T02:55:36;17.85;73.93
73688;SHT30;62257;48.376;-4.378;2022-08-21T02:58:07;17.86;74.03
73688;SHT30;62257;48.376;-4.378;2022-08-21T03:00:34;17.86;74.04
73688;SHT30;62257;48.376;-4.378;2022-08-21T03:03:00;17.86;74.04
73688;SHT30;62257;48.376;-4.378;2022-08-21T03:05:27;17.85;73.94
73688;SHT30;62257;48.376;-4.378;2022-08-21T03:07:53;17.83;74.01
73688;SHT30;62257;48.376;-4.378;2022-08-21T03:10:20;17.81;74.01
73688;SHT30;62257;48.376;-4.378;2022-08-21T03:12:47;17.83;74.02
73688;SHT30;62257;48.376;-4.378;2022-08-21T03:15:16;17.81;74.01
73688;SHT30;62257;48.376;-4.378;2022-08-21T03:17:42;17.83;74.02
73688;SHT30;62257;48.376;-4.378;2022-08-21T03:20:09;17.82;74.09
73688;SHT30;62257;48.376;-4.378;2022-08-21T03:22:34;17.86;73.99
73688;SHT30;62257;48.376;-4.378;2022-08-21T03:25:00;17.85;73.95
73688;SHT30;62257;48.376;-4.378;2022-08-21T03:27:27;17.82;74.06
73688;SHT30;62257;48.376;-4.378;2022-08-21T03:29:53;17.88;74.07
73688;SHT30;62257;48.376;-4.378;2022-08-21T03:32:19;17.85;73.95
73688;SHT30;62257;48.376;-4.378;2022-08-21T03:34:45;17.82;73.95
73688;SHT30;62257;48.376;-4.378;2022-08-21T03:37:11;17.81;74.11
73688;SHT30;62257;48.376;-4.378;2022-08-21T03:39:37;17.77;74.41
73688;SHT30;62257;48.376;-4.378;2022-08-21T03:42:02;17.77;74.76
73688;SHT30;62257;48.376;-4.378;2022-08-21T03:44:28;17.75;74.99
73688;SHT30;62257;48.376;-4.378;2022-08-21T03:46:55;17.77;75.26
73688;SHT30;62257;48.376;-4.378;2022-08-21T03:49:20;17.78;75.74
73688;SHT30;62257;48.376;-4.378;2022-08-21T03:51:46;17.78;75.79
73688;SHT30;62257;48.376;-4.378;2022-08-21T03:54:11;17.82;75.11
73688;SHT30;62257;48.376;-4.378;2022-08-21T03:56:37;17.78;75.55
73688;SHT30;62257;48.376;-4.378;2022-08-21T03:59:02;17.77;75.42
73688;SHT30;62257;48.376;-4.378;2022-08-21T04:01:29;17.77;75.45
73688;SHT30;62257;48.376;-4.378;2022-08-21T04:03:54;17.77;75.60
73688;SHT30;62257;48.376;-4.378;2022-08-21T04:06:20;17.75;76.43
73688;SHT30;62257;48.376;-4.378;2022-08-21T04:08:45;17.72;75.94
73688;SHT30;62257;48.376;-4.378;2022-08-21T04:11:11;17.69;75.32
73688;SHT30;62257;48.376;-4.378;2022-08-21T04:13:37;17.72;76.33
73688;SHT30;62257;48.376;-4.378;2022-08-21T04:16:04;17.67;75.99
73688;SHT30;62257;48.376;-4.378;2022-08-21T04:18:29;17.62;77.28
73688;SHT30;62257;48.376;-4.378;2022-08-21T04:20:56;17.55;77.77
73688;SHT30;62257;48.376;-4.378;2022-08-21T04:23:23;17.50;79.14
73688;SHT30;62257;48.376;-4.378;2022-08-21T04:25:49;17.47;78.30
73688;SHT30;62257;48.376;-4.378;2022-08-21T04:28:14;17.40;78.75
73688;SHT30;62257;48.376;-4.378;2022-08-21T04:30:40;17.33;78.76
73688;SHT30;62257;48.376;-4.378;2022-08-21T04:33:05;17.34;78.42
73688;SHT30;62257;48.376;-4.378;2022-08-21T04:35:31;17.31;78.49
73688;SHT30;62257;48.376;-4.378;2022-08-21T04:37:57;17.28;78.23
73688;SHT30;62257;48.376;-4.378;2022-08-21T04:40:25;17.30;78.59
73688;SHT30;62257;48.376;-4.378;2022-08-21T04:42:52;17.30;78.33
73688;SHT30;62257;48.376;-4.378;2022-08-21T04:45:23;17.33;78.63
73688;SHT30;62257;48.376;-4.378;2022-08-21T04:47:50;17.34;78.73
73688;SHT30;62257;48.376;-4.378;2022-08-21T04:50:16;17.35;78.47
73688;SHT30;62257;48.376;-4.378;2022-08-21T04:52:43;17.37;78.32
73688;SHT30;62257;48.376;-4.378;2022-08-21T04:55:09;17.35;77.82
73688;SHT30;62257;48.376;-4.378;2022-08-21T04:57:35;17.38;78.17
73688;SHT30;62257;48.376;-4.378;2022-08-21T05:00:02;17.42;78.01
73688;SHT30;62257;48.376;-4.378;2022-08-21T05:02:28;17.44;77.94
73688;SHT30;62257;48.376;-4.378;2022-08-21T05:04:54;17.42;77.49
73688;SHT30;62257;48.376;-4.378;2022-08-21T05:07:22;17.41;77.54
73688;SHT30;62257;48.376;-4.378;2022-08-21T05:09:49;17.44;77.93
73688;SHT30;62257;48.376;-4.378;2022-08-21T05:12:14;17.44;78.03
73688;SHT30;62257;48.376;-4.378;2022-08-21T05:14:40;17.42;77.83
73688;SHT30;62257;48.376;-4.378;2022-08-21T05:17:07;17.44;77.98
73688;SHT30;62257;48.376;-4.378;2022-08-21T05:19:32;17.44;78.14
73688;SHT30;62257;48.376;-4.378;2022-08-21T05:21:58;17.47;77.76
73688;SHT30;62257;48.376;-4.378;2022-08-21T05:24:23;17.47;77.67
73688;SHT30;62257;48.376;-4.378;2022-08-21T05:26:49;17.47;77.62
73688;SHT30;62257;48.376;-4.378;2022-08-21T05:29:16;17.45;78.04
73688;SHT30;62257;48.376;-4.378;2022-08-21T05:31:42;17.44;77.81
73688;SHT30;62257;48.376;-4.378;2022-08-21T05:34:08;17.47;78.43
73688;SHT30;62257;48.376;-4.378;2022-08-21T05:36:33;17.50;77.99
73688;SHT30;62257;48.376;-4.378;2022-08-21T05:38:59;17.47;77.92
73688;SHT30;62257;48.376;-4.378;2022-08-21T05:41:24;17.51;77.57
73688;SHT30;62257;48.376;-4.378;2022-08-21T05:43:49;17.51;77.64
73688;SHT30;62257;48.376;-4.378;2022-08-21T05:46:15;17.48;77.94
73688;SHT30;62257;48.376;-4.378;2022-08-21T05:48:40;17.48;78.13
73688;SHT30;62257;48.376;-4.378;2022-08-21T05:51:08;17.52;78.46
73688;SHT30;62257;48.376;-4.378;2022-08-21T05:53:35;17.52;77.98
73688;SHT30;62257;48.376;-4.378;2022-08-21T05:56:01;17.54;77.75
73688;SHT30;62257;48.376;-4.378;2022-08-21T05:58:29;17.54;77.54
73688;SHT30;62257;48.376;-4.378;2022-08-21T06:00:54;17.54;77.74
73688;SHT30;62257;48.376;-4.378;2022-08-21T06:03:23;17.57;77.90
73688;SHT30;62257;48.376;-4.378;2022-08-21T06:05:48;17.57;77.49
73688;SHT30;62257;48.376;-4.378;2022-08-21T06:08:15;17.61;77.79
73688;SHT30;62257;48.376;-4.378;2022-08-21T06:10:41;17.61;78.01
73688;SHT30;62257;48.376;-4.378;2022-08-21T06:13:07;17.64;77.44
73688;SHT30;62257;48.376;-4.378;2022-08-21T06:15:32;17.65;77.14
73688;SHT30;62257;48.376;-4.378;2022-08-21T06:17:57;17.67;77.43
73688;SHT30;62257;48.376;-4.378;2022-08-21T06:20:23;17.68;77.34
73688;SHT30;62257;48.376;-4.378;2022-08-21T06:22:48;17.71;77.68
73688;SHT30;62257;48.376;-4.378;2022-08-21T06:25:14;17.75;77.10
73688;SHT30;62257;48.376;-4.378;2022-08-21T06:27:39;17.78;76.78
73688;SHT30;62257;48.376;-4.378;2022-08-21T06:30:06;17.83;76.94
73688;SHT30;62257;48.376;-4.378;2022-08-21T06:32:31;17.89;77.23
73688;SHT30;62257;48.376;-4.378;2022-08-21T06:34:57;17.98;77.49
73688;SHT30;62257;48.376;-4.378;2022-08-21T06:37:22;18.05;77.14
73688;SHT30;62257;48.376;-4.378;2022-08-21T06:39:48;18.10;77.22
73688;SHT30;62257;48.376;-4.378;2022-08-21T06:42:17;18.17;76.91
73688;SHT30;62257;48.376;-4.378;2022-08-21T06:44:43;18.23;76.77
73688;SHT30;62257;48.376;-4.378;2022-08-21T06:47:08;18.29;76.74
73688;SHT30;62257;48.376;-4.378;2022-08-21T06:49:34;18.26;76.46
73688;SHT30;62257;48.376;-4.378;2022-08-21T06:52:00;18.30;76.32
73688;SHT30;62257;48.376;-4.378;2022-08-21T06:54:26;18.30;76.43
73688;SHT30;62257;48.376;-4.378;2022-08-21T06:56:51;18.27;76.94
73688;SHT30;62257;48.376;-4.378;2022-08-21T06:59:17;18.32;76.98
73688;SHT30;62257;48.376;-4.378;2022-08-21T07:01:43;18.29;77.16
73688;SHT30;62257;48.376;-4.378;2022-08-21T07:04:08;18.25;76.86
73688;SHT30;62257;48.376;-4.378;2022-08-21T07:06:33;18.23;77.19
73688;SHT30;62257;48.376;-4.378;2022-08-21T07:08:59;18.22;79.03
73688;SHT30;62257;48.376;-4.378;2022-08-21T07:11:26;18.17;77.86
73688;SHT30;62257;48.376;-4.378;2022-08-21T07:13:52;18.18;78.34
73688;SHT30;62257;48.376;-4.378;2022-08-21T07:16:18;18.22;78.35
73688;SHT30;62257;48.376;-4.378;2022-08-21T07:18:44;18.17;78.36
73688;SHT30;62257;48.376;-4.378;2022-08-21T07:21:09;18.16;78.46
73688;SHT30;62257;48.376;-4.378;2022-08-21T07:23:38;18.13;79.20
73688;SHT30;62257;48.376;-4.378;2022-08-21T07:26:05;18.09;79.42
73688;SHT30;62257;48.376;-4.378;2022-08-21T07:28:31;18.12;79.82
73688;SHT30;62257;48.376;-4.378;2022-08-21T07:30:58;18.12;79.40
73688;SHT30;62257;48.376;-4.378;2022-08-21T07:33:25;18.16;79.45
73688;SHT30;62257;48.376;-4.378;2022-08-21T07:35:51;18.17;79.47
73688;SHT30;62257;48.376;-4.378;2022-08-21T07:38:17;18.23;79.09
73688;SHT30;62257;48.376;-4.378;2022-08-21T07:40:44;18.26;79.80
73688;SHT30;62257;48.376;-4.378;2022-08-21T07:43:10;18.33;79.80
73688;SHT30;62257;48.376;-4.378;2022-08-21T07:45:36;18.47;79.62
73688;SHT30;62257;48.376;-4.378;2022-08-21T07:48:02;18.61;79.31
73688;SHT30;62257;48.376;-4.378;2022-08-21T07:50:27;18.69;78.75
73688;SHT30;62257;48.376;-4.378;2022-08-21T07:52:52;18.79;79.09
73688;SHT30;62257;48.376;-4.378;2022-08-21T07:55:20;18.85;78.43
73688;SHT30;62257;48.376;-4.378;2022-08-21T07:57:47;18.91;78.13
73688;SHT30;62257;48.376;-4.378;2022-08-21T08:00:16;18.92;77.96
73688;SHT30;62257;48.376;-4.378;2022-08-21T08:02:45;18.96;78.50
73688;SHT30;62257;48.376;-4.378;2022-08-21T08:05:11;19.02;78.65
73688;SHT30;62257;48.376;-4.378;2022-08-21T08:07:37;19.06;78.28
73688;SHT30;62257;48.376;-4.378;2022-08-21T08:10:04;19.08;78.21
73688;SHT30;62257;48.376;-4.378;2022-08-21T08:12:33;19.08;81.23
73688;SHT30;62257;48.376;-4.378;2022-08-21T08:14:59;19.03;79.81
73688;SHT30;62257;48.376;-4.378;2022-08-21T08:17:26;19.02;79.42
73688;SHT30;62257;48.376;-4.378;2022-08-21T08:19:52;19.02;79.29
73688;SHT30;62257;48.376;-4.378;2022-08-21T08:22:20;19.06;78.98
73688;SHT30;62257;48.376;-4.378;2022-08-21T08:24:47;19.10;78.92
73688;SHT30;62257;48.376;-4.378;2022-08-21T08:27:14;19.20;78.50
73688;SHT30;62257;48.376;-4.378;2022-08-21T08:29:39;19.26;78.76
73688;SHT30;62257;48.376;-4.378;2022-08-21T08:32:05;19.31;78.62
73688;SHT30;62257;48.376;-4.378;2022-08-21T08:34:36;19.43;78.16
73688;SHT30;62257;48.376;-4.378;2022-08-21T08:37:03;19.56;77.82
73688;SHT30;62257;48.376;-4.378;2022-08-21T08:39:29;19.70;77.23
73688;SHT30;62257;48.376;-4.378;2022-08-21T08:42:22;19.86;76.66
73688;SHT30;62257;48.376;-4.378;2022-08-21T08:44:56;20.04;76.69
73688;SHT30;62257;48.376;-4.378;2022-08-21T08:47:25;20.08;76.22
73688;SHT30;62257;48.376;-4.378;2022-08-21T08:50:19;20.05;76.57
73688;SHT30;62257;48.376;-4.378;2022-08-21T08:53:05;20.06;75.77
73688;SHT30;62257;48.376;-4.378;2022-08-21T08:55:41;20.12;76.01
73688;SHT30;62257;48.376;-4.378;2022-08-21T08:58:22;20.18;75.52
73688;SHT30;62257;48.376;-4.378;2022-08-21T09:00:50;20.22;75.55
73688;SHT30;62257;48.376;-4.378;2022-08-21T09:03:16;20.18;76.17
73688;SHT30;62257;48.376;-4.378;2022-08-21T09:12:17;20.19;76.17
73688;SHT30;62257;48.376;-4.378;2022-08-21T09:26:08;20.84;73.82
73688;SHT30;62257;48.376;-4.378;2022-08-21T09:28:37;21.09;73.28
73688;SHT30;62257;48.376;-4.378;2022-08-21T09:31:08;21.34;72.83
73688;SHT30;62257;48.376;-4.378;2022-08-21T09:33:35;21.52;72.86
73688;SHT30;62257;48.376;-4.378;2022-08-21T09:36:00;21.60;72.28
73688;SHT30;62257;48.376;-4.378;2022-08-21T09:38:30;21.53;71.52
73688;SHT30;62257;48.376;-4.378;2022-08-21T09:41:09;21.47;72.21
73688;SHT30;62257;48.376;-4.378;2022-08-21T09:43:36;21.52;71.95
73688;SHT30;62257;48.376;-4.378;2022-08-21T09:46:08;21.63;71.43
73688;SHT30;62257;48.376;-4.378;2022-08-21T09:48:49;21.79;71.35
73688;SHT30;62257;48.376;-4.378;2022-08-21T09:51:18;21.93;70.41
73688;SHT30;62257;48.376;-4.378;2022-08-21T09:53:48;21.96;70.41
73688;SHT30;62257;48.376;-4.378;2022-08-21T09:56:57;21.87;70.53
73688;SHT30;62257;48.376;-4.378;2022-08-21T09:59:42;21.93;71.23
73688;SHT30;62257;48.376;-4.378;2022-08-21T10:02:32;22.05;70.47
73688;SHT30;62257;48.376;-4.378;2022-08-21T10:04:59;22.17;70.06
73688;SHT30;62257;48.376;-4.378;2022-08-21T10:07:28;22.22;69.93
73688;SHT30;62257;48.376;-4.378;2022-08-21T10:15:22;22.59;69.63
73688;SHT30;62257;48.376;-4.378;2022-08-21T10:27:48;22.53;69.63
73688;SHT30;62257;48.376;-4.378;2022-08-21T10:30:36;22.46;69.11
73688;SHT30;62257;48.376;-4.378;2022-08-21T10:36:06;22.38;69.97
73688;SHT30;62257;48.376;-4.378;2022-08-21T10:41:09;22.25;70.84
73688;SHT30;62257;48.376;-4.378;2022-08-21T10:46:15;22.28;70.78
73688;SHT30;62257;48.376;-4.378;2022-08-21T10:52:22;22.45;71.69
73688;SHT30;62257;48.376;-4.378;2022-08-21T10:54:56;22.53;71.02
73688;SHT30;62257;48.376;-4.378;2022-08-21T10:57:35;22.46;71.14
73688;SHT30;62257;48.376;-4.378;2022-08-21T11:00:18;22.42;70.35
73688;SHT30;62257;48.376;-4.378;2022-08-21T11:02:55;22.31;72.21
73688;SHT30;62257;48.376;-4.378;2022-08-21T11:05:41;22.25;71.50
73688;SHT30;62257;48.376;-4.378;2022-08-21T11:08:15;22.11;72.59
73688;SHT30;62257;48.376;-4.378;2022-08-21T11:10:47;22.19;71.97
73688;SHT30;62257;48.376;-4.378;2022-08-21T11:16:02;22.22;72.56
73688;SHT30;62257;48.376;-4.378;2022-08-21T11:18:42;22.10;72.91
73688;SHT30;62257;48.376;-4.378;2022-08-21T11:23:45;21.98;73.75
73688;SHT30;62257;48.376;-4.378;2022-08-21T11:26:17;22.00;74.02
73688;SHT30;62257;48.376;-4.378;2022-08-21T11:28:58;22.02;73.75
73688;SHT30;62257;48.376;-4.378;2022-08-21T11:34:24;22.38;72.36
73688;SHT30;62257;48.376;-4.378;2022-08-21T11:42:50;23.06;71.70
73688;SHT30;62257;48.376;-4.378;2022-08-21T11:48:22;23.52;70.29
73688;SHT30;62257;48.376;-4.378;2022-08-21T11:50:51;22.76;70.96
73688;SHT30;62257;48.376;-4.378;2022-08-21T11:53:35;21.97;74.13
73688;SHT30;62257;48.376;-4.378;2022-08-21T11:56:16;21.57;75.54
73688;SHT30;62257;48.376;-4.378;2022-08-21T11:58:50;21.24;74.69
73688;SHT30;62257;48.376;-4.378;2022-08-21T12:01:23;20.99;75.77
73688;SHT30;62257;48.376;-4.378;2022-08-21T12:04:10;20.81;76.17
73688;SHT30;62257;48.376;-4.378;2022-08-21T12:06:42;20.90;77.29
73688;SHT30;62257;48.376;-4.378;2022-08-21T12:09:31;20.99;76.10
73688;SHT30;62257;48.376;-4.378;2022-08-21T12:12:13;21.21;75.80
73688;SHT30;62257;48.376;-4.378;2022-08-21T12:14:50;21.38;75.57
73688;SHT30;62257;48.376;-4.378;2022-08-21T12:17:24;21.45;74.24
73688;SHT30;62257;48.376;-4.378;2022-08-21T12:20:02;21.70;74.46
73688;SHT30;62257;48.376;-4.378;2022-08-21T12:22:40;22.01;74.03
73688;SHT30;62257;48.376;-4.378;2022-08-21T12:25:11;22.01;73.05
73688;SHT30;62257;48.376;-4.378;2022-08-21T12:27:52;22.27;73.75
73688;SHT30;62257;48.376;-4.378;2022-08-21T12:30:39;22.25;71.32
73688;SHT30;62257;48.376;-4.378;2022-08-21T12:33:32;22.28;71.40
73688;SHT30;62257;48.376;-4.378;2022-08-21T12:36:18;22.49;72.13
73688;SHT30;62257;48.376;-4.378;2022-08-21T12:39:03;22.66;71.36
73688;SHT30;62257;48.376;-4.378;2022-08-21T12:41:45;22.76;70.06
73688;SHT30;62257;48.376;-4.378;2022-08-21T12:44:21;22.87;70.65
73688;SHT30;62257;48.376;-4.378;2022-08-21T12:47:03;22.94;69.52
73688;SHT30;62257;48.376;-4.378;2022-08-21T12:49:36;22.96;69.43
73688;SHT30;62257;48.376;-4.378;2022-08-21T12:52:11;22.92;69.57
73688;SHT30;62257;48.376;-4.378;2022-08-21T12:54:42;23.02;67.89
73688;SHT30;62257;48.376;-4.378;2022-08-21T12:57:16;23.27;67.64
73688;SHT30;62257;48.376;-4.378;2022-08-21T12:59:43;23.37;67.13
73688;SHT30;62257;48.376;-4.378;2022-08-21T13:02:18;23.42;68.41
73688;SHT30;62257;48.376;-4.378;2022-08-21T13:04:46;23.48;67.22
73688;SHT30;62257;48.376;-4.378;2022-08-21T13:07:14;23.73;66.71
73688;SHT30;62257;48.376;-4.378;2022-08-21T13:09:49;23.86;66.29
73688;SHT30;62257;48.376;-4.378;2022-08-21T13:12:17;23.99;65.06
73688;SHT30;62257;48.376;-4.378;2022-08-21T13:14:45;23.86;64.40
73688;SHT30;62257;48.376;-4.378;2022-08-21T13:17:17;23.69;65.06
73688;SHT30;62257;48.376;-4.378;2022-08-21T13:19:53;23.66;64.79
73688;SHT30;62257;48.376;-4.378;2022-08-21T13:22:18;23.86;65.30
73688;SHT30;62257;48.376;-4.378;2022-08-21T13:24:47;23.92;65.54
73688;SHT30;62257;48.376;-4.378;2022-08-21T13:27:29;24.12;63.99
73688;SHT30;62257;48.376;-4.378;2022-08-21T13:30:17;24.34;63.23
73688;SHT30;62257;48.376;-4.378;2022-08-21T13:32:45;24.44;63.80
73688;SHT30;62257;48.376;-4.378;2022-08-21T13:35:25;24.50;64.03
73688;SHT30;62257;48.376;-4.378;2022-08-21T13:37:51;24.72;63.88
73688;SHT30;62257;48.376;-4.378;2022-08-21T13:40:23;24.61;62.08
73688;SHT30;62257;48.376;-4.378;2022-08-21T13:42:49;24.57;63.28
73688;SHT30;62257;48.376;-4.378;2022-08-21T13:45:23;24.45;63.41
73688;SHT30;62257;48.376;-4.378;2022-08-21T13:47:50;24.41;63.99
73688;SHT30;62257;48.376;-4.378;2022-08-21T13:50:18;24.51;62.97
73688;SHT30;62257;48.376;-4.378;2022-08-21T13:53:05;24.62;63.43
73688;SHT30;62257;48.376;-4.378;2022-08-21T13:55:42;24.57;63.64
73688;SHT30;62257;48.376;-4.378;2022-08-21T13:58:10;24.47;63.31
73688;SHT30;62257;48.376;-4.378;2022-08-21T14:00:48;24.34;64.69
73688;SHT30;62257;48.376;-4.378;2022-08-21T14:03:41;24.27;64.83
73688;SHT30;62257;48.376;-4.378;2022-08-21T14:06:16;24.52;63.83
73688;SHT30;62257;48.376;-4.378;2022-08-21T14:08:55;24.78;62.06
73688;SHT30;62257;48.376;-4.378;2022-08-21T14:11:21;24.78;61.61
73688;SHT30;62257;48.376;-4.378;2022-08-21T14:16:25;25.00;63.12
73688;SHT30;62257;48.376;-4.378;2022-08-21T14:21:30;24.85;62.11
73688;SHT30;62257;48.376;-4.378;2022-08-21T14:26:57;25.00;61.01
73688;SHT30;62257;48.376;-4.378;2022-08-21T14:29:27;24.95;60.57
73688;SHT30;62257;48.376;-4.378;2022-08-21T14:31:56;24.58;61.38
73688;SHT30;62257;48.376;-4.378;2022-08-21T14:34:26;24.34;62.32
73688;SHT30;62257;48.376;-4.378;2022-08-21T14:36:52;24.45;63.25
73688;SHT30;62257;48.376;-4.378;2022-08-21T14:39:18;24.55;62.39
73688;SHT30;62257;48.376;-4.378;2022-08-21T14:41:44;24.67;61.15
73688;SHT30;62257;48.376;-4.378;2022-08-21T14:44:12;24.72;61.14
73688;SHT30;62257;48.376;-4.378;2022-08-21T14:46:38;24.85;60.64
73688;SHT30;62257;48.376;-4.378;2022-08-21T14:49:04;24.95;59.14
73688;SHT30;62257;48.376;-4.378;2022-08-21T14:51:30;24.93;60.02
73688;SHT30;62257;48.376;-4.378;2022-08-21T14:53:55;24.86;59.88
73688;SHT30;62257;48.376;-4.378;2022-08-21T14:56:21;24.93;60.58
73688;SHT30;62257;48.376;-4.378;2022-08-21T14:58:49;24.83;60.43
73688;SHT30;62257;48.376;-4.378;2022-08-21T15:01:19;24.88;61.32
73688;SHT30;62257;48.376;-4.378;2022-08-21T15:03:46;24.82;59.91
73688;SHT30;62257;48.376;-4.378;2022-08-21T15:06:13;24.86;60.73
73688;SHT30;62257;48.376;-4.378;2022-08-21T15:08:39;24.86;61.00
73688;SHT30;62257;48.376;-4.378;2022-08-21T15:11:06;24.89;59.12
73688;SHT30;62257;48.376;-4.378;2022-08-21T15:13:32;24.86;59.25
73688;SHT30;62257;48.376;-4.378;2022-08-21T15:15:57;24.88;60.08
73688;SHT30;62257;48.376;-4.378;2022-08-21T15:18:25;24.81;59.84
73688;SHT30;62257;48.376;-4.378;2022-08-21T15:20:51;24.64;60.59
73688;SHT30;62257;48.376;-4.378;2022-08-21T15:23:17;24.60;61.11
73688;SHT30;62257;48.376;-4.378;2022-08-21T15:25:45;24.54;61.06
73688;SHT30;62257;48.376;-4.378;2022-08-21T15:28:11;24.18;62.15
73688;SHT30;62257;48.376;-4.378;2022-08-21T15:30:38;24.21;62.04
73688;SHT30;62257;48.376;-4.378;2022-08-21T15:33:05;24.31;62.06
73688;SHT30;62257;48.376;-4.378;2022-08-21T15:35:31;24.40;62.22
73688;SHT30;62257;48.376;-4.378;2022-08-21T15:37:56;24.57;62.43
73688;SHT30;62257;48.376;-4.378;2022-08-21T15:40:22;24.67;61.98
73688;SHT30;62257;48.376;-4.378;2022-08-21T15:42:48;24.65;62.46
73688;SHT30;62257;48.376;-4.378;2022-08-21T15:45:17;24.60;62.28
73688;SHT30;62257;48.376;-4.378;2022-08-21T15:47:45;24.55;62.68
73688;SHT30;62257;48.376;-4.378;2022-08-21T15:50:12;24.54;62.90
73688;SHT30;62257;48.376;-4.378;2022-08-21T15:52:38;24.48;62.97
73688;SHT30;62257;48.376;-4.378;2022-08-21T15:55:05;24.37;63.33
73688;SHT30;62257;48.376;-4.378;2022-08-21T15:57:31;24.24;62.88
73688;SHT30;62257;48.376;-4.378;2022-08-21T15:59:59;24.10;63.42
73688;SHT30;62257;48.376;-4.378;2022-08-21T16:02:32;23.86;63.80
73688;SHT30;62257;48.376;-4.378;2022-08-21T16:04:58;23.62;65.70
73688;SHT30;62257;48.376;-4.378;2022-08-21T16:07:24;23.42;65.87
73688;SHT30;62257;48.376;-4.378;2022-08-21T16:09:50;23.41;66.29
73688;SHT30;62257;48.376;-4.378;2022-08-21T16:12:20;23.48;66.94
73688;SHT30;62257;48.376;-4.378;2022-08-21T16:14:46;23.54;66.80
73688;SHT30;62257;48.376;-4.378;2022-08-21T16:17:12;23.57;66.84
73688;SHT30;62257;48.376;-4.378;2022-08-21T16:19:37;23.47;67.85
73688;SHT30;62257;48.376;-4.378;2022-08-21T16:22:04;23.40;67.89
73688;SHT30;62257;48.376;-4.378;2022-08-21T16:24:29;23.18;68.97
73688;SHT30;62257;48.376;-4.378;2022-08-21T16:26:55;23.04;68.90
73688;SHT30;62257;48.376;-4.378;2022-08-21T16:29:21;22.90;69.22
73688;SHT30;62257;48.376;-4.378;2022-08-21T16:31:47;22.77;69.97
73688;SHT30;62257;48.376;-4.378;2022-08-21T16:34:17;22.67;69.88
73688;SHT30;62257;48.376;-4.378;2022-08-21T16:36:43;22.63;69.65
73688;SHT30;62257;48.376;-4.378;2022-08-21T16:39:09;22.62;70.26